createdAt,value
2019-03-13T00:02:32.774Z,7.30
2019-03-13T00:05:02.825Z,3.63
2019-03-13T00:07:33.903Z,4.73
2019-03-13T00:10:07.393Z,3.83
2019-03-13T00:12:40.982Z,3.43
2019-03-13T00:15:15.538Z,3.80
2019-03-13T00:17:46.519Z,3.53
2019-03-13T00:20:16.290Z,3.37
2019-03-13T00:22:47.600Z,5.43
2019-03-13T00:25:17.650Z,5.57
2019-03-13T00:27:51.507Z,3.33
2019-03-13T00:30:28.638Z,5.13
2019-03-13T00:33:00.433Z,3.73
2019-03-13T00:35:33.695Z,5.60
2019-03-13T00:38:04.583Z,5.57
2019-03-13T00:40:36.119Z,3.27
2019-03-13T00:43:05.822Z,4.27
2019-03-13T00:45:40.010Z,4.40
2019-03-13T00:48:10.203Z,4.53
2019-03-13T00:50:44.198Z,5.70
2019-03-13T00:53:23.550Z,4.57
2019-03-13T00:55:56.272Z,4.10
2019-03-13T00:58:35.430Z,4.53
2019-03-13T01:01:32.371Z,4.97
2019-03-13T01:04:31.959Z,3.43
2019-03-13T01:07:05.167Z,8.00
2019-03-13T01:09:42.481Z,3.50
2019-03-13T01:12:12.953Z,4.43
2019-03-13T01:14:44.401Z,4.93
2019-03-13T01:17:16.378Z,5.17
2019-03-13T01:19:46.142Z,3.83
2019-03-13T01:22:29.299Z,6.93
2019-03-13T01:25:01.651Z,5.57
2019-03-13T01:27:35.395Z,5.33
2019-03-13T01:30:08.212Z,6.07
2019-03-13T01:33:00.336Z,3.63
2019-03-13T01:35:49.682Z,4.70
2019-03-13T01:38:20.836Z,5.40
2019-03-13T01:40:58.665Z,3.80
2019-03-13T01:43:29.484Z,3.63
2019-03-13T01:45:59.175Z,5.17
2019-03-13T01:48:29.843Z,5.97
2019-03-13T01:51:02.517Z,4.70
2019-03-13T01:53:38.534Z,5.57
2019-03-13T01:56:10.819Z,5.37
2019-03-13T01:58:40.632Z,5.70
2019-03-13T02:01:12.439Z,6.10
2019-03-13T02:03:46.698Z,4.87
2019-03-13T02:06:18.598Z,5.00
2019-03-13T02:08:50.903Z,5.03
2019-03-13T02:11:25.027Z,5.90
2019-03-13T02:13:56.975Z,6.13
2019-03-13T02:16:27.332Z,5.93
2019-03-13T02:18:57.094Z,5.90
2019-03-13T02:21:28.083Z,4.67
2019-03-13T02:23:59.127Z,5.90
2019-03-13T02:26:32.340Z,7.27
2019-03-13T02:29:07.761Z,6.80
2019-03-13T02:31:38.918Z,5.10
2019-03-13T02:34:08.671Z,6.20
2019-03-13T02:36:38.371Z,4.27
2019-03-13T02:39:10.726Z,4.53
2019-03-13T02:41:45.593Z,4.97
2019-03-13T02:44:19.460Z,5.00
2019-03-13T02:46:52.079Z,6.43
2019-03-13T02:49:24.550Z,5.50
2019-03-13T02:51:57.711Z,4.97
2019-03-13T02:54:32.339Z,5.17
2019-03-13T02:57:05.483Z,4.77
2019-03-13T02:59:37.271Z,5.23
2019-03-13T03:02:15.185Z,5.47
2019-03-13T03:04:47.231Z,5.30
2019-03-13T03:07:16.936Z,5.17
2019-03-13T03:09:50.786Z,5.07
2019-03-13T03:12:23.668Z,6.60
2019-03-13T03:15:12.370Z,4.17
2019-03-13T03:17:47.878Z,5.63
2019-03-13T03:20:20.271Z,4.53
2019-03-13T03:22:49.976Z,5.27
2019-03-13T03:25:19.803Z,5.17
2019-03-13T03:27:49.554Z,5.10
2019-03-13T03:30:26.291Z,5.83
2019-03-13T03:32:59.098Z,5.53
2019-03-13T03:35:33.431Z,4.77
2019-03-13T03:38:03.232Z,6.83
2019-03-13T03:40:34.360Z,6.97
2019-03-13T03:43:05.868Z,6.70
2019-03-13T03:45:36.595Z,5.80
2019-03-13T03:48:10.109Z,7.33
2019-03-13T03:50:43.011Z,9.30
2019-03-13T03:53:14.572Z,5.73
2019-03-13T03:55:50.048Z,7.70
2019-03-13T03:58:20.945Z,6.13
2019-03-13T04:01:07.280Z,6.37
2019-03-13T04:03:28.726Z,7.37
2019-03-13T04:06:00.533Z,6.00
2019-03-13T04:08:30.835Z,4.47
2019-03-13T04:11:04.489Z,5.33
2019-03-13T04:13:37.374Z,5.93
2019-03-13T04:16:07.525Z,13.80
2019-03-13T04:18:37.485Z,6.40
2019-03-13T04:21:07.559Z,4.40
2019-03-13T04:23:39.531Z,5.37
2019-03-13T04:26:13.615Z,6.83
2019-03-13T04:28:45.270Z,5.50
2019-03-13T04:31:15.045Z,5.47
2019-03-13T04:33:50.274Z,10.50
2019-03-13T04:36:20.265Z,6.10
2019-03-13T04:38:53.057Z,7.17
2019-03-13T04:41:24.107Z,4.93
2019-03-13T04:43:56.054Z,9.13
2019-03-13T04:46:28.849Z,6.33
2019-03-13T04:48:59.663Z,6.70
2019-03-13T04:51:49.697Z,8.27
2019-03-13T04:54:20.571Z,6.07
2019-03-13T04:56:52.197Z,5.37
2019-03-13T04:59:24.114Z,5.40
2019-03-13T05:01:56.185Z,6.07
2019-03-13T05:04:28.363Z,6.13
2019-03-13T05:06:59.426Z,7.43
2019-03-13T05:09:45.591Z,6.13
2019-03-13T05:12:17.137Z,9.47
2019-03-13T05:14:47.431Z,5.90
2019-03-13T05:17:19.962Z,6.03
2019-03-13T05:19:51.049Z,6.00
2019-03-13T05:22:24.167Z,6.00
2019-03-13T05:24:55.126Z,4.87
2019-03-13T05:27:26.537Z,8.97
2019-03-13T05:29:57.237Z,5.70
2019-03-13T05:32:27.006Z,5.87
2019-03-13T05:34:56.887Z,5.23
2019-03-13T05:37:27.794Z,5.17
2019-03-13T05:39:57.711Z,6.13
2019-03-13T05:42:27.566Z,6.40
2019-03-13T05:44:57.530Z,9.70
2019-03-13T05:47:27.312Z,5.43
2019-03-13T05:50:00.918Z,6.20
2019-03-13T05:52:31.322Z,5.93
2019-03-13T05:55:20.746Z,8.03
2019-03-13T05:57:50.856Z,5.80
2019-03-13T06:00:24.695Z,5.13
2019-03-13T06:02:56.361Z,5.57
2019-03-13T06:05:32.299Z,5.70
2019-03-13T06:08:08.627Z,8.53
2019-03-13T06:10:43.437Z,6.87
2019-03-13T06:13:14.536Z,11.00
2019-03-13T06:15:45.462Z,6.03
2019-03-13T06:18:15.352Z,6.93
2019-03-13T06:20:45.131Z,8.87
2019-03-13T06:23:19.073Z,8.20
2019-03-13T06:25:50.718Z,7.77
2019-03-13T06:28:20.586Z,6.67
2019-03-13T06:30:50.484Z,6.20
2019-03-13T06:33:23.600Z,7.63
2019-03-13T06:35:56.867Z,7.13
2019-03-13T06:38:26.716Z,9.33
2019-03-13T06:41:01.231Z,10.50
2019-03-13T06:43:32.091Z,8.77
2019-03-13T06:46:02.063Z,14.63
2019-03-13T06:48:34.675Z,13.63
2019-03-13T06:51:07.120Z,16.20
2019-03-13T06:53:37.074Z,11.77
2019-03-13T06:56:11.496Z,12.40
2019-03-13T06:58:53.077Z,10.87
2019-03-13T07:01:47.286Z,8.97
2019-03-13T07:04:39.570Z,9.73
2019-03-13T07:07:33.730Z,8.23
2019-03-13T07:10:20.235Z,8.00
2019-03-13T07:13:19.439Z,10.70
2019-03-13T07:16:12.947Z,14.33
2019-03-13T07:19:08.409Z,6.00
2019-03-13T07:22:03.169Z,6.23
2019-03-13T07:25:16.650Z,8.30
2019-03-13T07:28:04.928Z,4.83
2019-03-13T07:31:05.019Z,3.90
2019-03-13T07:34:08.651Z,2.70
2019-03-13T07:37:14.380Z,3.57
2019-03-13T07:39:56.693Z,3.17
2019-03-13T07:43:00.344Z,2.37
2019-03-13T07:46:03.650Z,5.00
2019-03-13T07:48:55.595Z,5.27
2019-03-13T07:51:36.092Z,3.50
2019-03-13T07:54:24.946Z,4.87
2019-03-13T07:57:12.825Z,5.07
2019-03-13T08:00:16.731Z,8.50
2019-03-13T08:03:08.493Z,1.97
2019-03-13T08:05:48.601Z,2.57
2019-03-13T08:08:42.595Z,5.90
2019-03-13T08:11:32.577Z,2.43
2019-03-13T08:14:39.127Z,3.53
2019-03-13T08:17:22.823Z,5.17
2019-03-13T08:20:22.845Z,4.07
2019-03-13T08:23:22.981Z,2.87
2019-03-13T08:26:04.663Z,4.33
2019-03-13T08:28:43.955Z,3.40
2019-03-13T08:31:35.147Z,2.60
2019-03-13T08:34:23.765Z,3.60
2019-03-13T08:37:02.887Z,2.50
2019-03-13T08:39:49.766Z,5.73
2019-03-13T08:42:47.158Z,5.33
2019-03-13T08:45:38.620Z,3.67
2019-03-13T08:48:26.195Z,2.30
2019-03-13T08:51:04.256Z,2.57
2019-03-13T08:53:44.589Z,2.20
2019-03-13T08:56:31.794Z,2.43
2019-03-13T08:59:19.106Z,2.27
2019-03-13T09:02:07.857Z,1.87
2019-03-13T09:04:55.330Z,1.87
2019-03-13T09:07:42.778Z,1.57
2019-03-13T09:10:35.770Z,1.67
2019-03-13T09:13:30.452Z,2.83
2019-03-13T09:16:07.129Z,2.80
2019-03-13T09:19:01.890Z,2.67
2019-03-13T09:21:49.179Z,4.70
2019-03-13T09:24:46.538Z,3.43
2019-03-13T09:27:38.155Z,1.90
2019-03-13T09:30:39.928Z,4.37
2019-03-13T09:33:21.514Z,6.67
2019-03-13T09:35:57.722Z,1.70
2019-03-13T09:38:38.500Z,2.47
2019-03-13T09:41:26.137Z,2.70
2019-03-13T09:44:14.770Z,1.40
2019-03-13T09:47:00.291Z,2.70
2019-03-13T09:49:46.934Z,1.60
2019-03-13T09:52:36.599Z,7.10
2019-03-13T09:55:24.475Z,1.40
2019-03-13T09:58:19.102Z,1.33
2019-03-13T10:01:19.698Z,1.33
2019-03-13T10:04:07.590Z,3.33
2019-03-13T10:06:58.511Z,2.47
2019-03-13T10:09:54.769Z,3.73
2019-03-13T10:12:33.615Z,3.90
2019-03-13T10:15:37.478Z,2.43
2019-03-13T10:18:21.550Z,3.30
2019-03-13T10:21:04.780Z,4.23
2019-03-13T10:23:53.901Z,2.20
2019-03-13T10:26:36.811Z,2.70
2019-03-13T10:29:30.762Z,1.97
2019-03-13T10:32:19.522Z,2.97
2019-03-13T10:35:26.681Z,2.00
2019-03-13T10:38:18.560Z,1.93
2019-03-13T10:40:57.987Z,5.97
2019-03-13T10:43:55.663Z,1.60
2019-03-13T10:46:56.381Z,2.30
2019-03-13T10:49:33.135Z,1.60
2019-03-13T10:52:16.606Z,2.63
2019-03-13T10:55:03.893Z,2.37
2019-03-13T10:57:46.469Z,2.53
2019-03-13T11:00:37.732Z,1.53
2019-03-13T11:03:25.173Z,1.40
2019-03-13T11:06:19.398Z,1.40
2019-03-13T11:09:02.877Z,1.40
2019-03-13T11:11:37.782Z,1.40
2019-03-13T11:14:32.733Z,1.60
2019-03-13T11:17:20.267Z,3.30
2019-03-13T11:20:13.991Z,1.50
2019-03-13T11:23:13.314Z,1.77
2019-03-13T11:26:08.742Z,2.10
2019-03-13T11:29:00.384Z,1.50
2019-03-13T11:31:50.556Z,1.47
2019-03-13T11:34:36.493Z,1.60
2019-03-13T11:37:16.147Z,2.27
2019-03-13T11:40:10.823Z,1.80
2019-03-13T11:42:58.278Z,1.63
2019-03-13T11:45:38.270Z,2.30
2019-03-13T11:48:25.837Z,1.57
2019-03-13T11:51:14.515Z,1.40
2019-03-13T11:54:01.952Z,1.70
2019-03-13T11:56:59.541Z,2.00
2019-03-13T11:59:38.679Z,1.43
2019-03-13T12:02:26.078Z,1.70
2019-03-13T12:05:17.942Z,1.63
2019-03-13T12:08:05.532Z,3.03
2019-03-13T12:10:57.495Z,0.87
2019-03-13T12:13:43.522Z,1.10
2019-03-13T12:16:21.350Z,1.90
2019-03-13T12:19:10.255Z,2.87
2019-03-13T12:22:10.830Z,2.77
2019-03-13T12:25:01.743Z,3.13
2019-03-13T12:27:54.592Z,2.30
2019-03-13T12:30:41.796Z,1.73
2019-03-13T12:33:35.391Z,3.03
2019-03-13T12:36:22.798Z,1.73
2019-03-13T12:38:58.371Z,1.77
2019-03-13T12:41:56.607Z,1.87
2019-03-13T12:45:00.481Z,1.70
2019-03-13T12:47:51.863Z,2.30
2019-03-13T12:50:34.143Z,2.30
2019-03-13T12:53:11.754Z,1.20
2019-03-13T12:56:05.754Z,1.20
2019-03-13T12:58:57.148Z,1.43
2019-03-13T13:01:56.071Z,1.80
2019-03-13T13:04:53.666Z,2.83
2019-03-13T13:07:39.254Z,2.10
2019-03-13T13:10:28.379Z,1.60
2019-03-13T13:13:09.056Z,1.23
2019-03-13T13:15:56.539Z,1.27
2019-03-13T13:18:41.307Z,1.37
2019-03-13T13:21:11.814Z,2.10
2019-03-13T13:23:41.731Z,1.37
2019-03-13T13:26:11.739Z,1.50
2019-03-13T13:28:41.583Z,2.20
2019-03-13T13:31:11.624Z,2.13
2019-03-13T13:33:41.591Z,1.70
2019-03-13T13:36:11.603Z,1.40
2019-03-13T13:38:41.374Z,1.30
2019-03-13T13:41:12.550Z,1.30
2019-03-13T13:43:42.435Z,2.17
2019-03-13T13:46:31.525Z,3.13
2019-03-13T13:49:03.248Z,3.70
2019-03-13T13:51:33.272Z,1.30
2019-03-13T13:54:03.133Z,1.30
2019-03-13T13:56:32.997Z,1.73
2019-03-13T13:59:02.992Z,1.13
2019-03-13T14:01:32.876Z,1.40
2019-03-13T14:04:02.567Z,1.30
2019-03-13T14:06:32.664Z,0.93
2019-03-13T14:09:08.966Z,1.10
2019-03-13T14:11:38.964Z,1.33
2019-03-13T14:14:11.331Z,1.60
2019-03-13T14:16:41.196Z,1.57
2019-03-13T14:19:11.751Z,1.70
2019-03-13T14:21:41.458Z,5.97
2019-03-13T14:24:19.039Z,1.37
2019-03-13T14:26:48.911Z,4.03
2019-03-13T14:29:20.451Z,1.57
2019-03-13T14:31:54.817Z,2.30
2019-03-13T14:34:26.056Z,1.10
2019-03-13T14:36:57.181Z,2.10
2019-03-13T14:39:28.450Z,3.07
2019-03-13T14:42:00.663Z,1.90
2019-03-13T14:44:30.377Z,0.97
2019-03-13T14:47:00.359Z,1.40
2019-03-13T14:49:30.262Z,1.00
2019-03-13T14:52:02.096Z,1.10
2019-03-13T14:54:31.778Z,4.63
2019-03-13T14:57:01.631Z,1.30
2019-03-13T14:59:32.742Z,2.40
2019-03-13T15:02:02.678Z,1.60
2019-03-13T15:04:32.430Z,4.40
2019-03-13T15:07:02.225Z,1.97
2019-03-13T15:09:32.268Z,1.40
2019-03-13T15:12:02.092Z,3.43
2019-03-13T15:14:31.950Z,1.57
2019-03-13T15:17:01.873Z,1.40
2019-03-13T15:19:31.723Z,1.43
2019-03-13T15:22:01.663Z,1.33
2019-03-13T15:24:31.553Z,3.47
2019-03-13T15:27:01.281Z,2.70
2019-03-13T15:29:31.242Z,2.40
2019-03-13T15:32:02.654Z,3.27
2019-03-13T15:34:32.745Z,2.33
2019-03-13T15:37:02.646Z,1.77
2019-03-13T15:39:32.638Z,2.30
2019-03-13T15:42:02.519Z,2.03
2019-03-13T15:44:32.403Z,4.13
2019-03-13T15:47:02.691Z,3.30
2019-03-13T15:49:35.068Z,2.63
2019-03-13T15:52:04.867Z,5.53
2019-03-13T15:54:34.838Z,2.77
2019-03-13T15:57:04.729Z,2.27
2019-03-13T15:59:34.635Z,1.60
2019-03-13T16:02:05.561Z,1.70
2019-03-13T16:04:35.297Z,3.43
2019-03-13T16:07:06.542Z,3.27
2019-03-13T16:09:36.512Z,2.73
2019-03-13T16:12:06.367Z,2.33
2019-03-13T16:14:40.387Z,2.23
2019-03-13T16:17:33.977Z,3.93
2019-03-13T16:20:08.947Z,2.83
2019-03-13T16:22:54.272Z,2.03
2019-03-13T16:25:33.747Z,1.97
2019-03-13T16:28:18.978Z,3.07
2019-03-13T16:30:56.808Z,2.60
2019-03-13T16:34:01.132Z,2.50
2019-03-13T16:36:11.824Z,1.70
2019-03-13T16:38:50.414Z,3.53
2019-03-13T16:41:38.186Z,1.30
2019-03-13T16:44:41.962Z,1.27
2019-03-13T16:51:24.670Z,2.00
2019-03-13T16:57:31.659Z,1.40
2019-03-13T17:00:36.288Z,2.30
2019-03-13T17:03:21.249Z,2.17
2019-03-13T17:06:23.436Z,4.43
2019-03-13T17:09:41.223Z,5.47
2019-03-13T17:19:01.679Z,16.40
2019-03-13T17:21:45.007Z,3.43
2019-03-13T17:24:20.204Z,4.33
2019-03-13T17:30:26.638Z,3.20
2019-03-13T17:33:00.406Z,2.53
2019-03-13T17:35:32.835Z,4.07
2019-03-13T17:38:17.470Z,3.37
2019-03-13T17:40:49.316Z,3.63
2019-03-13T17:43:39.212Z,3.37
2019-03-13T17:46:07.502Z,2.40
2019-03-13T17:48:46.517Z,5.67
2019-03-13T17:51:57.396Z,4.23
2019-03-13T17:54:43.608Z,4.87
2019-03-13T17:57:41.704Z,4.70
2019-03-13T18:05:00.408Z,2.57
2019-03-13T18:07:53.864Z,3.70
2019-03-13T18:10:59.435Z,2.43
2019-03-13T18:14:13.206Z,3.30
2019-03-13T18:16:58.444Z,4.73
2019-03-13T18:19:42.635Z,6.60
2019-03-13T18:22:30.590Z,8.60
2019-03-13T18:25:05.931Z,5.17
2019-03-13T18:27:36.186Z,8.00
2019-03-13T18:30:54.793Z,8.83
2019-03-13T18:33:26.465Z,6.97
2019-03-13T18:36:02.380Z,6.83
2019-03-13T18:38:36.647Z,7.50
2019-03-13T18:41:22.962Z,8.63
2019-03-13T18:43:51.963Z,4.47
2019-03-13T18:46:43.279Z,7.10
2019-03-13T18:49:15.199Z,4.90
2019-03-13T18:51:57.752Z,5.43
2019-03-13T18:54:39.435Z,4.53
2019-03-13T18:57:40.820Z,5.40
2019-03-13T19:00:27.525Z,4.60
2019-03-13T19:03:14.728Z,5.63
2019-03-13T19:05:57.699Z,6.17
2019-03-13T19:08:44.363Z,4.10
2019-03-13T19:11:46.380Z,5.13
2019-03-13T19:14:37.989Z,5.03
2019-03-13T19:17:25.699Z,4.13
2019-03-13T19:20:01.190Z,4.97
2019-03-13T19:22:45.039Z,3.10
2019-03-13T19:25:29.819Z,4.87
2019-03-13T19:28:14.672Z,6.63
2019-03-13T19:31:49.958Z,6.10
2019-03-13T19:34:34.763Z,9.93
2019-03-13T19:37:23.479Z,6.03
2019-03-13T19:40:08.566Z,5.33
2019-03-13T19:43:01.593Z,6.83
2019-03-13T19:45:37.550Z,5.37
2019-03-13T19:48:07.688Z,4.67
2019-03-13T19:50:40.516Z,4.57
2019-03-13T19:53:13.432Z,3.83
2019-03-13T19:55:46.094Z,4.07
2019-03-13T19:58:18.521Z,3.53
2019-03-13T20:00:51.078Z,5.50
2019-03-13T20:03:26.247Z,4.47
2019-03-13T20:05:59.796Z,4.70
2019-03-13T20:08:37.506Z,3.47
2019-03-13T20:11:19.464Z,4.77
2019-03-13T20:13:53.953Z,3.20
2019-03-13T20:16:30.026Z,2.33
2019-03-13T20:19:00.661Z,2.47
2019-03-13T20:21:36.200Z,3.00
2019-03-13T20:24:07.253Z,4.40
2019-03-13T20:26:38.926Z,2.80
2019-03-13T20:29:08.577Z,2.97
2019-03-13T20:31:42.778Z,3.63
2019-03-13T20:34:15.546Z,5.20
2019-03-13T20:36:46.523Z,4.47
2019-03-13T20:39:20.346Z,3.83
2019-03-13T20:41:54.279Z,2.80
2019-03-13T20:44:29.372Z,2.53
2019-03-13T20:47:04.500Z,6.13
2019-03-13T20:49:42.206Z,3.47
2019-03-13T20:52:18.458Z,4.97
2019-03-13T20:54:51.884Z,6.27
2019-03-13T20:57:25.199Z,5.53
2019-03-13T20:59:59.134Z,4.53
2019-03-13T21:02:32.810Z,4.80
2019-03-13T21:05:07.053Z,4.53
2019-03-13T21:07:37.878Z,5.37
2019-03-13T21:10:12.365Z,4.97
2019-03-13T21:12:48.733Z,5.00
2019-03-13T21:15:21.403Z,4.97
2019-03-13T21:17:54.802Z,5.60
2019-03-13T21:20:27.526Z,5.33
2019-03-13T21:23:05.497Z,5.10
2019-03-13T21:25:36.885Z,5.07
2019-03-13T21:28:10.861Z,7.73
2019-03-13T21:30:51.830Z,6.60
2019-03-13T21:33:25.021Z,5.20
2019-03-13T21:36:03.538Z,5.90
2019-03-13T21:38:36.914Z,7.90
2019-03-13T21:41:13.231Z,5.70
2019-03-13T21:43:52.479Z,7.90
2019-03-13T21:46:22.049Z,6.50
2019-03-13T21:48:57.458Z,7.83
2019-03-13T21:51:34.755Z,7.73
2019-03-13T21:54:06.170Z,5.43
2019-03-13T21:56:39.156Z,7.20
2019-03-13T21:59:15.290Z,5.43
2019-03-13T22:01:53.693Z,7.70
2019-03-13T22:04:29.431Z,7.37
2019-03-13T22:06:59.623Z,8.33
2019-03-13T22:09:34.498Z,7.60
2019-03-13T22:12:07.355Z,8.77
2019-03-13T22:14:41.918Z,6.07
2019-03-13T22:17:14.155Z,8.23
2019-03-13T22:19:48.498Z,7.47
2019-03-13T22:22:18.078Z,8.23
2019-03-13T22:24:55.021Z,10.07
2019-03-13T22:27:30.235Z,6.17
2019-03-13T22:30:01.566Z,8.43
2019-03-13T22:32:37.178Z,8.33
2019-03-13T22:35:09.309Z,8.17
2019-03-13T22:37:46.295Z,7.13
2019-03-13T22:40:14.730Z,10.33
2019-03-13T22:42:44.527Z,9.10
2019-03-13T22:45:18.974Z,7.00
2019-03-13T22:47:50.791Z,7.33
2019-03-13T22:50:24.292Z,5.30
2019-03-13T22:52:55.406Z,7.17
2019-03-13T22:55:25.857Z,6.33
2019-03-13T22:58:01.724Z,9.53
2019-03-13T23:00:58.801Z,6.67
2019-03-13T23:03:31.325Z,6.23
2019-03-13T23:06:05.674Z,4.97
2019-03-13T23:08:43.957Z,5.20
2019-03-13T23:11:18.530Z,9.03
2019-03-13T23:13:59.489Z,6.97
2019-03-13T23:16:34.055Z,4.33
2019-03-13T23:19:06.327Z,3.73
2019-03-13T23:21:44.343Z,3.87
2019-03-13T23:24:19.998Z,6.83
2019-03-13T23:26:55.570Z,3.23
2019-03-13T23:29:28.893Z,4.07
2019-03-13T23:31:58.966Z,3.30
2019-03-13T23:34:31.427Z,4.90
2019-03-13T23:37:06.798Z,3.73
2019-03-13T23:39:40.115Z,7.23
2019-03-13T23:42:11.131Z,2.73
2019-03-13T23:44:41.543Z,5.37
2019-03-13T23:47:14.598Z,2.87
2019-03-13T23:49:59.108Z,6.60
2019-03-13T23:52:38.777Z,4.97
2019-03-13T23:55:11.220Z,2.33
2019-03-13T23:57:44.961Z,1.43
